Time;durP1;ratioP1;P1;durP2;ratioP2;P2;SDS_P1;SDS_P2;PMS_P1;PMS_P2;Temp;Humidity;BMP_temperature;BMP_pressure;BME280_temperature;BME280_humidity;BME280_pressure;Samples;Min_cycle;Max_cycle;Signal;HPM_P1;HPM_P2
2023/05/02 00:02:20;;;;;;;35.40;22.33;;;13.00;84.70;;;;;;5006169;28;20175;-90
2023/05/02 00:08:01;;;;;;;35.43;22.27;;;12.70;88.10;;;;;;5050438;28;20187;-90
2023/05/02 00:14:13;;;;;;;30.80;22.37;;;12.80;90.00;;;;;;4957268;28;20178;-89
2023/05/02 00:16:45;;;;;;;34.53;22.00;;;12.80;87.10;;;;;;5033989;28;20166;-90
2023/05/02 00:19:14;;;;;;;37.87;22.90;;;12.70;87.70;;;;;;5002612;28;20183;-90
2023/05/02 00:21:49;;;;;;;38.83;23.90;;;12.70;87.70;;;;;;4994086;28;20214;-91
2023/05/02 00:24:29;;;;;;;36.80;24.07;;;12.60;90.90;;;;;;4995750;28;20639;-91
2023/05/02 00:27:07;;;;;;;39.77;24.10;;;12.60;91.00;;;;;;4995332;28;20238;-91
2023/05/02 00:42:57;;;;;;;;;;;;;;;;;;;;;
2023/05/02 00:46:52;;;;;;;46.50;28.33;;;12.50;94.70;;;;;;4964970;29;20235;-88
2023/05/02 00:53:09;;;;;;;45.00;29.67;;;12.50;96.10;;;;;;4955955;29;20227;-90
2023/05/02 00:55:50;;;;;;;46.23;29.90;;;12.40;97.90;;;;;;4940420;29;20203;-90
2023/05/02 01:09:19;;;;;;;50.73;28.83;;;12.20;99.90;;;;;;4902042;29;20213;-90
2023/05/02 01:20:02;;;;;;;51.90;30.70;;;11.90;99.90;;;;;;4892566;29;20198;-90
2023/05/02 01:23:02;;;;;;;53.13;33.10;;;11.90;99.90;;;;;;4889446;29;20185;-90
2023/05/02 01:26:25;;;;;;;53.47;34.20;;;11.90;99.90;;;;;;4886901;29;20183;-90
2023/05/02 01:32:43;;;;;;;53.90;33.00;;;12.00;99.90;;;;;;4921371;29;20198;-90
2023/05/02 01:35:13;;;;;;;50.40;34.90;;;11.90;99.90;;;;;;4921267;29;20206;-91
2023/05/02 01:44:32;;;;;;;51.13;31.97;;;12.00;99.90;;;;;;4880069;29;20329;-90
2023/05/02 01:51:25;;;;;;;47.50;32.13;;;12.00;99.90;;;;;;4919663;29;20182;-90
2023/05/02 01:54:16;;;;;;;46.90;31.97;;;12.00;99.90;;;;;;4899298;29;20185;-90
2023/05/02 02:00:18;;;;;;;49.83;29.57;;;12.10;99.90;;;;;;4980620;28;20211;-89
2023/05/02 02:34:09;;;;;;;44.77;28.37;;;11.70;99.90;;;;;;4934869;29;20219;-90
2023/05/02 02:37:03;;;;;;;49.37;32.83;;;11.60;99.90;;;;;;4933995;29;20189;-90
2023/05/02 02:43:47;;;;;;;49.23;31.33;;;11.70;99.90;;;;;;4964397;28;20184;-90
2023/05/02 02:50:22;;;;;;;48.13;31.93;;;11.70;99.90;;;;;;4979041;28;20170;-90
2023/05/02 02:53:48;;;;;;;52.90;33.30;;;11.70;99.90;;;;;;4991524;28;20183;-91
2023/05/02 03:13:55;;;;;;;;;;;;;;;;;;;;;
2023/05/02 03:24:14;;;;;;;40.77;25.87;;;11.20;99.90;;;;;;4954416;29;20188;-92
2023/05/02 03:37:23;;;;;;;42.80;27.07;;;11.20;99.90;;;;;;4866963;29;20238;-90
2023/05/02 04:00:41;;;;;;;49.37;31.43;;;11.10;99.90;;;;;;4868023;29;20233;-90
2023/05/02 04:04:00;;;;;;;;;;;;;;;;;;;;;
2023/05/02 04:06:53;;;;;;;53.70;32.43;;;11.10;99.90;;;;;;4867337;29;20176;-90
2023/05/02 04:13:27;;;;;;;46.27;30.37;;;10.90;99.90;;;;;;4810455;29;20213;-90
2023/05/02 04:16:14;;;;;;;50.67;30.83;;;10.90;99.90;;;;;;4843460;29;20219;-89
2023/05/02 04:19:34;;;;;;;54.87;34.07;;;11.10;99.90;;;;;;4853645;29;20207;-88
2023/05/02 04:22:49;;;;;;;;;;;;;;;;;;;;;
2023/05/02 04:25:15;;;;;;;54.13;32.17;;;11.00;99.90;;;;;;4899815;29;20194;-89
2023/05/02 04:27:42;;;;;;;50.23;32.00;;;11.00;99.90;;;;;;4898144;29;20269;-90
2023/05/02 04:30:09;;;;;;;57.07;33.27;;;11.00;99.90;;;;;;4937584;28;20192;-90
2023/05/02 04:32:41;;;;;;;52.13;32.57;;;11.10;99.90;;;;;;4980180;28;20175;-89
2023/05/02 04:35:07;;;;;;;52.07;33.03;;;11.10;99.90;;;;;;4975933;28;20210;-89
2023/05/02 04:37:37;;;;;;;52.93;31.37;;;11.00;99.90;;;;;;4977319;28;20267;-89
2023/05/02 04:40:05;;;;;;;52.07;31.70;;;11.00;99.90;;;;;;4961890;28;20211;-89
2023/05/02 04:42:36;;;;;;;50.97;32.27;;;11.00;99.90;;;;;;4976287;28;20222;-89
2023/05/02 04:45:02;;;;;;;49.37;32.60;;;11.10;99.90;;;;;;4977470;28;20579;-88
2023/05/02 04:47:28;;;;;;;51.20;31.03;;;11.10;99.90;;;;;;4991547;28;20267;-90
2023/05/02 04:49:54;;;;;;;53.20;32.50;;;11.00;99.90;;;;;;4977066;28;20254;-90
2023/05/02 04:52:20;;;;;;;53.17;32.10;;;11.00;99.90;;;;;;4979041;28;20542;-90
2023/05/02 04:54:45;;;;;;;50.63;31.63;;;11.10;99.90;;;;;;4983757;28;20227;-88
2023/05/02 04:57:11;;;;;;;51.07;32.27;;;11.00;99.90;;;;;;4994105;28;20179;-89
2023/05/02 04:59:37;;;;;;;53.10;31.73;;;11.00;99.90;;;;;;4990297;28;20203;-88
2023/05/02 05:02:51;;;;;;;46.97;31.63;;;11.00;99.90;;;;;;4989396;28;20194;-88
2023/05/02 05:05:19;;;;;;;51.80;33.83;;;10.90;99.90;;;;;;4994906;28;20175;-88
2023/05/02 05:07:45;;;;;;;50.43;30.97;;;10.90;99.90;;;;;;4994571;28;20222;-91
2023/05/02 05:10:14;;;;;;;46.97;31.50;;;10.90;99.90;;;;;;4997677;28;20251;-89
2023/05/02 05:12:41;;;;;;;50.40;31.80;;;10.90;99.90;;;;;;4981886;28;20191;-91
2023/05/02 05:15:07;;;;;;;49.27;32.37;;;10.90;99.90;;;;;;4976088;28;20171;-90
2023/05/02 05:17:41;;;;;;;44.77;30.90;;;10.90;99.90;;;;;;4977011;28;20181;-90
2023/05/02 05:20:09;;;;;;;42.33;29.57;;;10.90;99.90;;;;;;4975512;28;20222;-91
2023/05/02 05:22:41;;;;;;;43.83;29.17;;;10.90;99.90;;;;;;4977383;28;20207;-91
2023/05/02 05:25:09;;;;;;;45.93;31.43;;;10.90;99.90;;;;;;4990600;28;20170;-86
2023/05/02 05:27:36;;;;;;;42.83;28.00;;;11.10;99.90;;;;;;4998966;28;20194;-89
2023/05/02 05:30:03;;;;;;;37.97;24.27;;;10.90;99.90;;;;;;4995732;28;20281;-89
2023/05/02 05:32:29;;;;;;;42.83;27.90;;;10.90;99.90;;;;;;5005801;28;20206;-89
2023/05/02 05:34:56;;;;;;;39.33;26.53;;;10.90;99.90;;;;;;5005758;28;20202;-90
2023/05/02 05:37:22;;;;;;;32.00;24.03;;;11.00;99.90;;;;;;4996559;28;20170;-90
2023/05/02 05:39:59;;;;;;;37.90;25.57;;;11.00;99.90;;;;;;4995895;28;20179;-92
2023/05/02 05:42:25;;;;;;;37.03;24.23;;;11.00;99.90;;;;;;5016007;28;20178;-90
2023/05/02 05:45:00;;;;;;;34.73;24.40;;;11.00;99.90;;;;;;5005486;28;20171;-91
2023/05/02 05:47:25;;;;;;;35.73;24.40;;;11.10;99.90;;;;;;4996185;28;20175;-91
2023/05/02 05:49:55;;;;;;;34.70;23.60;;;11.20;99.90;;;;;;4997704;28;20178;-92
2023/05/02 05:52:21;;;;;;;36.13;24.57;;;11.20;99.90;;;;;;4996875;28;20178;-89
2023/05/02 05:54:54;;;;;;;29.87;21.63;;;11.30;99.90;;;;;;4995592;28;20170;-91
2023/05/02 05:57:20;;;;;;;29.00;21.87;;;11.30;99.90;;;;;;4996769;28;20623;-90
2023/05/02 05:59:46;;;;;;;29.43;22.20;;;11.30;99.90;;;;;;4994487;28;20183;-87
2023/05/02 06:02:11;;;;;;;31.10;21.80;;;11.30;99.90;;;;;;4995613;28;20186;-92
2023/05/02 06:04:37;;;;;;;30.57;21.77;;;11.30;99.90;;;;;;4985579;28;20163;-90
2023/05/02 06:07:03;;;;;;;28.20;20.83;;;11.20;99.90;;;;;;5014521;28;20644;-90
2023/05/02 06:09:31;;;;;;;33.10;22.30;;;11.20;99.90;;;;;;5008949;28;20179;-90
2023/05/02 06:12:01;;;;;;;25.43;20.10;;;11.20;99.90;;;;;;4996129;28;20206;-90
2023/05/02 06:14:28;;;;;;;29.00;21.23;;;11.20;99.90;;;;;;4995062;28;20659;-91
2023/05/02 06:17:02;;;;;;;31.13;21.53;;;11.30;99.90;;;;;;4993267;28;20252;-91
2023/05/02 06:19:28;;;;;;;27.37;21.40;;;11.30;99.90;;;;;;4992755;28;20526;-92
2023/05/02 06:21:55;;;;;;;27.73;20.53;;;11.30;99.90;;;;;;4993362;28;20217;-90
2023/05/02 06:24:22;;;;;;;29.00;22.27;;;11.30;99.90;;;;;;4991876;28;20206;-90
2023/05/02 06:26:52;;;;;;;31.20;21.63;;;11.30;99.90;;;;;;4989669;28;20183;-91
2023/05/02 06:29:18;;;;;;;30.30;21.10;;;11.30;99.90;;;;;;4993847;28;20265;-89
2023/05/02 06:31:44;;;;;;;29.60;22.53;;;11.30;99.90;;;;;;4993293;28;20266;-92
2023/05/02 06:34:10;;;;;;;34.17;22.27;;;11.30;99.90;;;;;;4992627;28;20209;-92
2023/05/02 06:36:56;;;;;;;32.17;23.43;;;11.30;99.90;;;;;;4993578;28;20179;-91
2023/05/02 06:39:30;;;;;;;34.17;24.67;;;11.20;99.90;;;;;;4994898;28;20687;-90
2023/05/02 06:41:57;;;;;;;32.17;23.80;;;11.30;99.90;;;;;;4994103;28;20226;-89
2023/05/02 06:44:23;;;;;;;31.37;23.50;;;11.20;99.90;;;;;;4994369;28;20254;-90
2023/05/02 06:47:09;;;;;;;32.30;25.13;;;11.20;99.90;;;;;;4992975;28;20238;-90
2023/05/02 06:49:35;;;;;;;37.03;24.80;;;11.30;99.90;;;;;;4992962;28;20175;-89
2023/05/02 06:52:04;;;;;;;35.43;25.63;;;11.50;99.90;;;;;;4994814;28;20175;-91
2023/05/02 06:54:34;;;;;;;31.10;24.10;;;11.50;99.90;;;;;;5003440;28;20175;-91
2023/05/02 06:57:00;;;;;;;34.20;26.10;;;11.50;99.90;;;;;;4998538;28;20189;-90
2023/05/02 06:59:35;;;;;;;33.10;24.63;;;11.50;99.90;;;;;;4996291;28;20520;-91
2023/05/02 07:02:01;;;;;;;29.73;23.77;;;11.60;99.90;;;;;;4999074;28;20759;-90
2023/05/02 07:04:27;;;;;;;34.50;25.73;;;11.70;99.90;;;;;;5002723;28;20167;-89
2023/05/02 07:07:20;;;;;;;30.57;24.80;;;11.70;99.90;;;;;;5015268;28;20247;-89
2023/05/02 07:09:46;;;;;;;31.03;23.57;;;11.80;99.90;;;;;;5035935;28;20202;-88
2023/05/02 07:12:13;;;;;;;30.10;22.23;;;11.70;99.90;;;;;;4998869;28;20195;-90
2023/05/02 07:14:49;;;;;;;30.00;23.70;;;11.70;99.90;;;;;;4997986;28;20189;-90
2023/05/02 07:17:16;;;;;;;30.10;23.63;;;11.80;99.90;;;;;;4998170;28;20186;-90
2023/05/02 07:19:43;;;;;;;31.37;23.97;;;11.80;99.90;;;;;;5010139;28;20179;-87
2023/05/02 07:22:08;;;;;;;34.57;24.03;;;11.90;99.90;;;;;;5016470;28;20235;-88
2023/05/02 07:24:45;;;;;;;27.63;23.77;;;12.10;99.10;;;;;;5004424;28;20178;-90
2023/05/02 07:27:14;;;;;;;29.97;24.37;;;12.30;94.50;;;;;;4996307;28;20174;-90
2023/05/02 07:29:41;;;;;;;30.53;24.07;;;12.30;91.80;;;;;;5001525;28;20179;-89
2023/05/02 07:32:07;;;;;;;27.57;23.23;;;12.40;90.70;;;;;;5006829;28;20258;-89
2023/05/02 07:34:36;;;;;;;31.80;23.90;;;12.30;87.70;;;;;;5013749;28;20183;-89
2023/05/02 07:37:02;;;;;;;29.53;21.77;;;12.30;89.20;;;;;;5019048;28;20194;-88
2023/05/02 07:39:28;;;;;;;31.57;23.83;;;12.10;90.10;;;;;;5012208;28;20175;-89
2023/05/02 07:41:55;;;;;;;29.47;23.37;;;12.00;90.90;;;;;;5000638;28;20215;-90
2023/05/02 07:44:34;;;;;;;33.47;24.53;;;12.00;90.50;;;;;;4998646;28;20174;-88
2023/05/02 07:47:00;;;;;;;30.43;21.90;;;12.20;90.50;;;;;;4997650;28;20616;-89
2023/05/02 07:49:27;;;;;;;30.43;21.50;;;12.30;82.20;;;;;;4996169;28;20175;-90
2023/05/02 07:51:56;;;;;;;26.40;21.20;;;12.50;76.60;;;;;;4996164;28;20703;-90
2023/05/02 07:54:25;;;;;;;25.10;19.17;;;12.40;64.70;;;;;;4998122;28;20159;-89
2023/05/02 07:56:51;;;;;;;25.97;20.90;;;12.70;59.70;;;;;;4997218;28;20222;-89
2023/05/02 07:59:17;;;;;;;29.17;21.50;;;12.90;55.50;;;;;;4996252;28;20550;-90
2023/05/02 08:01:46;;;;;;;24.07;19.50;;;13.00;45.80;;;;;;4997767;28;20199;-90
2023/05/02 08:04:12;;;;;;;24.43;20.03;;;13.00;43.90;;;;;;4996463;28;20185;-90
2023/05/02 08:06:37;;;;;;;21.33;19.17;;;13.20;39.00;;;;;;5000916;28;20186;-91
2023/05/02 08:09:03;;;;;;;18.30;16.40;;;13.30;34.10;;;;;;5018124;28;20161;-89
2023/05/02 08:14:16;;;;;;;20.80;16.90;;;13.30;27.10;;;;;;5114131;27;20549;-89
2023/05/02 08:16:42;;;;;;;16.90;14.93;;;13.20;29.30;;;;;;5111971;28;20153;-89
2023/05/02 08:19:08;;;;;;;17.47;14.87;;;12.90;30.80;;;;;;5110583;28;20172;-90
2023/05/02 08:21:34;;;;;;;19.80;16.00;;;12.90;34.80;;;;;;5096019;28;20194;-89
2023/05/02 08:24:00;;;;;;;12.27;10.80;;;12.90;32.40;;;;;;5094336;28;20631;-90
2023/05/02 08:26:35;;;;;;;13.57;10.03;;;12.90;27.00;;;;;;5094973;28;20180;-89
2023/05/02 08:29:03;;;;;;;11.27;9.80;;;12.90;24.50;;;;;;5108272;28;20222;-89
2023/05/02 08:31:29;;;;;;;12.10;8.23;;;13.00;21.50;;;;;;5096189;28;20164;-90
2023/05/02 08:33:58;;;;;;;12.13;8.93;;;13.10;18.90;;;;;;5090375;28;20574;-90
2023/05/02 08:36:24;;;;;;;10.83;8.40;;;13.00;19.00;;;;;;5095736;28;20164;-89
2023/05/02 08:38:50;;;;;;;11.03;8.00;;;13.00;18.40;;;;;;5094568;28;20168;-89
2023/05/02 08:41:17;;;;;;;12.10;8.03;;;13.10;15.10;;;;;;5091676;28;20615;-88
2023/05/02 08:43:46;;;;;;;14.00;8.10;;;13.20;16.60;;;;;;5103895;28;20215;-89
2023/05/02 08:46:13;;;;;;;10.37;7.63;;;13.50;12.60;;;;;;5102945;28;20182;-87
2023/05/02 08:48:40;;;;;;;11.13;6.90;;;13.50;8.40;;;;;;5092651;28;20176;-88
2023/05/02 08:51:15;;;;;;;9.00;6.83;;;13.50;5.70;;;;;;5091300;28;20624;-89
2023/05/02 08:53:41;;;;;;;8.07;6.37;;;13.60;2.90;;;;;;5108788;28;20208;-88
2023/05/02 08:56:08;;;;;;;10.10;6.30;;;13.60;1.00;;;;;;5112209;28;20176;-87
2023/05/02 08:58:39;;;;;;;11.43;6.37;;;13.60;1.00;;;;;;5099594;28;20219;-90
2023/05/02 09:01:17;;;;;;;9.50;6.53;;;14.00;1.00;;;;;;5093760;28;20175;-88
2023/05/02 09:03:46;;;;;;;10.07;7.00;;;13.70;1.00;;;;;;5089993;28;20169;-87
2023/05/02 09:06:13;;;;;;;11.83;6.60;;;13.80;1.00;;;;;;5090431;28;20208;-89
2023/05/02 09:08:41;;;;;;;12.30;7.00;;;13.50;1.00;;;;;;5090873;28;20173;-88
2023/05/02 09:11:08;;;;;;;12.87;7.13;;;13.40;1.00;;;;;;5091981;28;20173;-90
2023/05/02 09:13:37;;;;;;;9.73;6.50;;;13.40;1.00;;;;;;5098539;28;20215;-91
2023/05/02 09:16:04;;;;;;;8.13;5.97;;;13.50;1.00;;;;;;5108866;28;20164;-90
2023/05/02 09:18:37;;;;;;;12.87;7.07;;;13.70;1.00;;;;;;5106159;28;20203;-87
2023/05/02 09:21:10;;;;;;;10.40;6.43;;;13.70;1.00;;;;;;5078677;28;20174;-90
2023/05/02 09:24:06;;;;;;;10.97;6.97;;;13.80;1.00;;;;;;5104528;28;20173;-90
2023/05/02 09:26:33;;;;;;;10.50;6.30;;;13.90;1.00;;;;;;5091501;28;20257;-91
2023/05/02 09:29:04;;;;;;;8.33;6.83;;;13.90;1.00;;;;;;5096013;28;20190;-87
2023/05/02 09:31:36;;;;;;;10.00;7.13;;;14.00;1.00;;;;;;5090798;28;20184;-89
2023/05/02 09:34:20;;;;;;;9.63;6.57;;;14.10;1.00;;;;;;5082386;28;20212;-89
2023/05/02 09:36:50;;;;;;;8.67;6.93;;;14.30;1.00;;;;;;5080696;28;20188;-90
2023/05/02 09:39:22;;;;;;;8.90;6.47;;;14.40;1.00;;;;;;5076036;28;20178;-90
2023/05/02 09:41:48;;;;;;;8.33;6.50;;;14.30;1.00;;;;;;5079218;28;20172;-88
2023/05/02 09:44:19;;;;;;;8.00;5.93;;;14.10;1.00;;;;;;5086212;28;20187;-88
2023/05/02 09:46:47;;;;;;;9.37;5.87;;;14.10;1.00;;;;;;5091594;28;20172;-89
2023/05/02 09:49:13;;;;;;;8.47;6.13;;;14.10;1.00;;;;;;5080360;28;20183;-88
2023/05/02 09:51:42;;;;;;;9.10;6.13;;;14.10;1.00;;;;;;5087249;28;20162;-90
2023/05/02 09:54:08;;;;;;;7.80;6.57;;;14.00;1.00;;;;;;5088767;28;20205;-88
2023/05/02 09:56:55;;;;;;;10.30;6.17;;;14.10;1.00;;;;;;5076563;28;20178;-90
2023/05/02 09:59:21;;;;;;;7.83;5.33;;;14.20;1.00;;;;;;5076201;28;20257;-90
2023/05/02 10:02:08;;;;;;;6.97;5.43;;;14.20;1.00;;;;;;5077082;28;20172;-88
2023/05/02 10:04:35;;;;;;;8.20;6.10;;;14.10;1.00;;;;;;5077769;28;20292;-90
2023/05/02 10:07:02;;;;;;;7.23;5.80;;;14.10;1.00;;;;;;5087093;28;20170;-88
2023/05/02 10:09:31;;;;;;;9.50;6.20;;;14.40;1.00;;;;;;5094796;28;20178;-89
2023/05/02 10:12:16;;;;;;;9.43;6.03;;;14.50;1.00;;;;;;5073247;28;20486;-90
2023/05/02 10:14:54;;;;;;;5.97;4.90;;;14.70;1.00;;;;;;5085686;28;20649;-89
2023/05/02 10:17:45;;;;;;;8.50;6.47;;;14.70;1.00;;;;;;5078192;28;20651;-89
2023/05/02 10:20:17;;;;;;;10.90;8.40;;;14.70;1.00;;;;;;5092498;28;20201;-90
2023/05/02 10:22:46;;;;;;;11.60;9.20;;;15.00;1.00;;;;;;5042603;28;20180;-90
2023/05/02 10:25:13;;;;;;;11.37;9.67;;;15.20;1.00;;;;;;5055247;28;20176;-89
2023/05/02 10:27:39;;;;;;;10.67;9.57;;;15.30;1.00;;;;;;5057035;28;20180;-89
2023/05/02 10:30:07;;;;;;;10.23;8.30;;;15.20;1.00;;;;;;5055919;28;20180;-86
2023/05/02 10:32:35;;;;;;;10.13;7.33;;;15.00;1.00;;;;;;5054988;28;20580;-86
2023/05/02 10:35:06;;;;;;;10.43;8.07;;;14.90;1.00;;;;;;5058066;28;20202;-87
2023/05/02 10:37:35;;;;;;;8.10;6.80;;;14.90;1.00;;;;;;5053833;28;20172;-86
2023/05/02 10:40:04;;;;;;;7.87;6.20;;;14.90;1.00;;;;;;5056763;28;20547;-86
2023/05/02 10:42:33;;;;;;;11.23;7.43;;;14.80;1.00;;;;;;5056264;28;20180;-87
2023/05/02 10:44:59;;;;;;;10.63;6.70;;;14.90;1.00;;;;;;5055486;28;20207;-86
2023/05/02 10:47:25;;;;;;;11.03;7.07;;;15.20;1.00;;;;;;5055548;28;20176;-86
2023/05/02 10:49:59;;;;;;;9.27;7.00;;;15.10;1.00;;;;;;5057350;28;20636;-87
2023/05/02 10:52:33;;;;;;;13.53;7.97;;;15.30;1.00;;;;;;5059801;28;20204;-87
2023/05/02 10:55:21;;;;;;;12.20;8.23;;;15.50;1.00;;;;;;5080780;28;20662;-85
2023/05/02 10:57:59;;;;;;;11.07;7.30;;;15.50;1.00;;;;;;5073603;28;20259;-86
2023/05/02 11:00:28;;;;;;;9.83;6.23;;;15.20;1.00;;;;;;5068497;28;20172;-87
2023/05/02 11:02:54;;;;;;;7.63;6.00;;;15.10;1.00;;;;;;5063037;28;20223;-84
2023/05/02 11:05:23;;;;;;;9.80;6.00;;;15.00;1.00;;;;;;5056752;28;20177;-85
2023/05/02 11:07:49;;;;;;;11.33;6.30;;;15.00;1.00;;;;;;5055552;28;20172;-85
2023/05/02 11:10:20;;;;;;;8.90;5.63;;;15.30;1.00;;;;;;5064779;28;20173;-85
2023/05/02 11:12:49;;;;;;;9.67;5.60;;;15.40;1.00;;;;;;5066790;28;20220;-86
2023/05/02 11:15:41;;;;;;;8.60;6.07;;;15.30;1.00;;;;;;5066567;28;20177;-86
2023/05/02 11:18:11;;;;;;;10.73;6.00;;;15.10;1.00;;;;;;5068726;28;20547;-86
2023/05/02 11:20:39;;;;;;;9.13;5.63;;;15.00;1.00;;;;;;5056408;28;20177;-87
2023/05/02 11:23:14;;;;;;;7.27;5.70;;;15.30;1.00;;;;;;5056912;28;20186;-88
2023/05/02 11:25:46;;;;;;;8.67;6.33;;;15.60;1.00;;;;;;5055935;28;20234;-87
2023/05/02 11:28:58;;;;;;;11.87;7.00;;;15.60;1.00;;;;;;5061828;28;20196;-86
2023/05/02 11:31:25;;;;;;;8.70;6.30;;;15.40;1.00;;;;;;5054628;28;20180;-86
2023/05/02 11:34:00;;;;;;;8.13;6.00;;;15.40;1.00;;;;;;5056420;28;20235;-87
2023/05/02 11:36:29;;;;;;;8.33;5.30;;;15.30;1.00;;;;;;5055745;28;20199;-86
2023/05/02 11:38:55;;;;;;;7.73;5.20;;;15.00;1.00;;;;;;5055165;28;20173;-87
2023/05/02 11:41:21;;;;;;;11.87;5.97;;;15.00;1.00;;;;;;5061494;28;20177;-85
2023/05/02 11:43:46;;;;;;;9.23;6.53;;;15.10;1.00;;;;;;5060996;28;20177;-84
2023/05/02 11:46:12;;;;;;;8.97;6.03;;;15.10;1.00;;;;;;5054061;28;20177;-87
2023/05/02 11:48:38;;;;;;;8.93;6.07;;;15.00;1.00;;;;;;5053578;28;20177;-86
2023/05/02 11:51:05;;;;;;;7.73;5.47;;;15.30;1.00;;;;;;5053984;28;20169;-87
2023/05/02 11:53:32;;;;;;;7.67;5.80;;;15.50;1.00;;;;;;5065386;28;20572;-85
2023/05/02 11:56:03;;;;;;;10.90;6.50;;;15.60;1.00;;;;;;5058307;28;20165;-85
2023/05/02 11:58:32;;;;;;;9.77;5.00;;;15.70;1.00;;;;;;5068604;28;20319;-87
2023/05/02 12:01:12;;;;;;;9.80;5.10;;;15.80;1.00;;;;;;5058655;28;20166;-87
2023/05/02 12:03:37;;;;;;;6.50;5.27;;;15.80;1.00;;;;;;5056402;28;20226;-87
2023/05/02 12:06:12;;;;;;;8.30;5.50;;;15.90;1.00;;;;;;5059733;28;20169;-85
2023/05/02 12:08:39;;;;;;;7.70;5.57;;;16.00;99.90;;;;;;5072890;28;20253;-87
2023/05/02 12:11:08;;;;;;;9.97;5.77;;;16.00;1.00;;;;;;5079157;28;20629;-85
2023/05/02 12:13:34;;;;;;;7.93;5.17;;;15.90;1.00;;;;;;5090986;28;20200;-86
2023/05/02 12:16:05;;;;;;;7.87;5.47;;;16.00;1.00;;;;;;5088084;28;20210;-86
2023/05/02 12:18:35;;;;;;;6.67;5.67;;;15.80;1.00;;;;;;5081681;28;20637;-85
2023/05/02 12:21:00;;;;;;;9.20;5.60;;;15.70;1.00;;;;;;5073849;28;20168;-85
2023/05/02 12:23:30;;;;;;;8.30;5.37;;;15.90;1.00;;;;;;5065974;28;20173;-85
2023/05/02 12:26:18;;;;;;;8.47;5.00;;;16.10;1.00;;;;;;5056211;28;20276;-86
2023/05/02 12:28:53;;;;;;;8.70;5.53;;;16.20;99.90;;;;;;5053655;28;20643;-86
2023/05/02 12:31:19;;;;;;;7.93;4.50;;;16.30;99.90;;;;;;5054460;28;20567;-86
2023/05/02 12:33:51;;;;;;;10.03;6.00;;;16.20;99.90;;;;;;5056337;28;20213;-87
2023/05/02 12:36:17;;;;;;;8.67;5.33;;;16.10;99.90;;;;;;5053925;28;20226;-85
2023/05/02 12:38:55;;;;;;;7.33;5.63;;;16.20;99.90;;;;;;5054868;28;20598;-85
2023/05/02 12:41:37;;;;;;;7.70;5.67;;;16.30;99.90;;;;;;5060483;28;20236;-85
2023/05/02 12:44:04;;;;;;;9.13;5.10;;;16.40;99.90;;;;;;5048004;28;20211;-87
2023/05/02 12:46:30;;;;;;;6.10;4.73;;;16.00;99.90;;;;;;5054238;28;20176;-86
2023/05/02 12:49:11;;;;;;;9.30;5.30;;;15.90;99.90;;;;;;5054892;28;20226;-85
2023/05/02 12:51:37;;;;;;;8.77;4.27;;;15.60;99.90;;;;;;5053783;28;20180;-84
2023/05/02 12:54:04;;;;;;;8.90;5.00;;;15.70;99.90;;;;;;5058314;28;20205;-86
2023/05/02 12:56:37;;;;;;;6.87;5.13;;;15.90;99.90;;;;;;5061333;28;20172;-87
2023/05/02 12:59:04;;;;;;;7.17;4.80;;;15.90;99.90;;;;;;5068217;28;20181;-86
2023/05/02 13:01:32;;;;;;;8.53;4.53;;;15.60;99.90;;;;;;5067680;28;20295;-82
2023/05/02 13:03:58;;;;;;;6.23;3.90;;;15.70;99.90;;;;;;5061115;28;20648;-86
2023/05/02 13:06:25;;;;;;;5.90;3.73;;;15.60;99.90;;;;;;5070724;28;20161;-86
2023/05/02 13:08:50;;;;;;;5.83;3.70;;;15.60;99.90;;;;;;5071768;28;20261;-87
2023/05/02 13:11:16;;;;;;;8.10;4.10;;;15.70;99.90;;;;;;5074366;28;20177;-85
2023/05/02 13:13:42;;;;;;;5.37;3.33;;;15.80;99.90;;;;;;5076208;28;20213;-87
2023/05/02 13:16:08;;;;;;;6.93;3.73;;;15.90;99.90;;;;;;5065375;28;20179;-84
2023/05/02 13:18:34;;;;;;;9.37;3.17;;;16.10;14.60;;;;;;5057758;28;20188;-85
2023/05/02 13:20:59;;;;;;;6.97;3.50;;;16.00;1.00;;;;;;5059134;28;20177;-86
2023/05/02 13:23:25;;;;;;;11.33;4.63;;;15.90;99.90;;;;;;5063284;28;20172;-87
2023/05/02 13:25:51;;;;;;;8.97;3.97;;;15.80;99.90;;;;;;5059821;28;20543;-87
2023/05/02 13:28:17;;;;;;;6.13;2.80;;;15.80;99.90;;;;;;5058888;28;20256;-85
2023/05/02 13:30:44;;;;;;;7.87;3.60;;;15.90;1.00;;;;;;5060401;28;20173;-84
2023/05/02 13:33:10;;;;;;;8.07;3.80;;;16.00;1.00;;;;;;5076095;28;20224;-84
2023/05/02 13:35:35;;;;;;;6.87;3.53;;;16.10;1.00;;;;;;5076102;28;20259;-85
2023/05/02 13:38:02;;;;;;;9.63;4.00;;;16.20;1.00;;;;;;5071175;28;20656;-86
2023/05/02 13:40:28;;;;;;;4.87;3.47;;;16.10;57.00;;;;;;5056807;28;20178;-88
2023/05/02 13:42:53;;;;;;;7.13;3.60;;;16.20;1.00;;;;;;5059674;28;20181;-86
2023/05/02 13:45:19;;;;;;;5.97;3.33;;;16.30;1.00;;;;;;5065206;28;20173;-87
2023/05/02 13:47:45;;;;;;;7.30;3.53;;;16.00;1.00;;;;;;5066399;28;20173;-88
2023/05/02 13:50:11;;;;;;;5.90;3.10;;;16.10;1.00;;;;;;5073434;28;20279;-86
2023/05/02 13:52:37;;;;;;;8.60;3.33;;;16.20;1.00;;;;;;5070193;28;20201;-87
2023/05/02 13:55:04;;;;;;;6.97;3.33;;;16.40;1.00;;;;;;5068059;28;20180;-87
2023/05/02 13:57:30;;;;;;;8.87;3.87;;;16.50;1.00;;;;;;5080042;28;20199;-87
2023/05/02 13:59:56;;;;;;;6.73;3.70;;;16.50;1.00;;;;;;5088370;28;20169;-86
2023/05/02 14:02:22;;;;;;;6.00;3.57;;;16.20;1.00;;;;;;5077698;28;20216;-86
2023/05/02 14:04:47;;;;;;;7.90;3.57;;;16.10;1.00;;;;;;5062170;28;20713;-86
2023/05/02 14:07:13;;;;;;;6.67;4.03;;;16.10;1.00;;;;;;5085109;28;20197;-86
2023/05/02 14:09:39;;;;;;;9.27;4.20;;;16.00;1.00;;;;;;5090379;28;20201;-85
2023/05/02 14:12:07;;;;;;;10.93;4.30;;;15.90;1.00;;;;;;5086369;28;20189;-85
2023/05/02 14:14:34;;;;;;;8.13;4.30;;;16.20;1.00;;;;;;5089344;28;20229;-82
2023/05/02 14:17:01;;;;;;;5.63;4.07;;;16.10;1.00;;;;;;5088158;28;20169;-85
2023/05/02 14:19:28;;;;;;;8.87;4.10;;;16.10;1.00;;;;;;5086090;28;20164;-86
2023/05/02 14:21:54;;;;;;;7.90;4.13;;;16.10;99.90;;;;;;5098031;28;20164;-86
2023/05/02 14:24:20;;;;;;;8.77;4.47;;;16.20;57.60;;;;;;5098403;28;20246;-84
2023/05/02 14:26:48;;;;;;;7.30;3.90;;;16.10;99.90;;;;;;5098113;28;20696;-85
2023/05/02 14:29:15;;;;;;;9.17;4.10;;;16.20;14.00;;;;;;5082398;28;20177;-86
2023/05/02 14:31:42;;;;;;;8.47;4.23;;;16.20;99.90;;;;;;5076802;28;20181;-85
2023/05/02 14:34:08;;;;;;;6.30;3.90;;;16.10;1.00;;;;;;5078343;28;20216;-84
2023/05/02 14:36:33;;;;;;;8.70;3.63;;;16.10;1.00;;;;;;5078285;28;20168;-85
2023/05/02 14:38:59;;;;;;;5.60;3.93;;;15.90;1.00;;;;;;5077416;28;20543;-85
2023/05/02 14:41:28;;;;;;;5.73;3.57;;;16.00;1.00;;;;;;5076115;28;20281;-86
2023/05/02 14:43:55;;;;;;;7.50;3.50;;;16.00;99.90;;;;;;5075816;28;20238;-85
2023/05/02 14:46:23;;;;;;;8.83;3.63;;;16.20;81.80;;;;;;5075714;28;20177;-86
2023/05/02 14:48:49;;;;;;;6.77;3.40;;;16.20;99.90;;;;;;5076952;28;20176;-85
2023/05/02 14:51:16;;;;;;;6.60;3.53;;;16.20;99.90;;;;;;5077219;28;20173;-85
2023/05/02 14:53:43;;;;;;;7.53;4.00;;;16.50;1.00;;;;;;5045773;28;20755;-87
2023/05/02 14:56:14;;;;;;;7.87;3.80;;;16.40;99.90;;;;;;5072996;28;20580;-86
2023/05/02 14:58:40;;;;;;;11.03;3.60;;;16.50;1.00;;;;;;5059291;28;20242;-88
2023/05/02 15:01:17;;;;;;;8.43;4.40;;;16.30;1.00;;;;;;5072183;28;20170;-86
2023/05/02 15:03:44;;;;;;;6.03;4.13;;;15.90;1.00;;;;;;5069038;28;20532;-85
2023/05/02 15:06:11;;;;;;;7.37;3.70;;;16.10;1.00;;;;;;5074152;28;20205;-87
2023/05/02 15:08:38;;;;;;;6.10;3.30;;;16.30;1.00;;;;;;5067934;28;20590;-87
2023/05/02 15:11:04;;;;;;;10.70;3.63;;;16.40;1.00;;;;;;5067961;28;20184;-86
2023/05/02 15:13:30;;;;;;;7.87;3.67;;;16.30;1.00;;;;;;5088780;28;20216;-87
2023/05/02 15:15:56;;;;;;;6.67;3.80;;;16.40;99.90;;;;;;5094825;28;20232;-87
2023/05/02 15:18:22;;;;;;;6.37;3.57;;;16.40;1.00;;;;;;5096805;28;20176;-83
2023/05/02 15:20:49;;;;;;;9.90;4.23;;;16.40;99.90;;;;;;5093707;28;20183;-86
2023/05/02 15:23:18;;;;;;;6.47;3.90;;;16.30;1.00;;;;;;5082544;28;20183;-87
2023/05/02 15:25:49;;;;;;;11.30;3.87;;;16.10;99.90;;;;;;5078702;28;20165;-87
2023/05/02 15:28:16;;;;;;;8.53;3.90;;;15.90;99.90;;;;;;5078165;28;20236;-88
2023/05/02 15:30:43;;;;;;;10.10;4.20;;;15.90;1.00;;;;;;5078569;28;20180;-86
2023/05/02 15:33:09;;;;;;;7.37;4.20;;;15.80;99.90;;;;;;5077491;28;20287;-88
2023/05/02 15:35:35;;;;;;;9.40;4.60;;;15.80;1.00;;;;;;5080123;28;20184;-88
2023/05/02 15:38:01;;;;;;;6.87;4.37;;;16.00;1.00;;;;;;5094709;28;20231;-87
2023/05/02 15:40:31;;;;;;;8.77;4.83;;;16.00;99.90;;;;;;5086883;28;20261;-86
2023/05/02 15:42:56;;;;;;;8.27;4.97;;;15.80;40.00;;;;;;5076538;28;20176;-87
2023/05/02 15:45:22;;;;;;;8.87;4.63;;;15.90;1.00;;;;;;5079027;28;20169;-87
2023/05/02 15:47:49;;;;;;;8.57;4.60;;;16.10;99.90;;;;;;5076147;28;20177;-88
2023/05/02 15:50:15;;;;;;;9.13;4.63;;;16.20;99.90;;;;;;5077682;28;20267;-87